<?xml version="1.0" encoding="UTF-8" standalone="no" ?>
<gpx xmlns="http://www.topografix.com/GPX/1/1" xmlns:xsi="http://www.w3.org/2001/XMLSchema-instance" xsi:schemaLocation="http://www.topografix.com/GPX/1/1 http://www.topografix.com/GPX/1/1/gpx.xsd" version="1.1" creator="VisuGPX - https://www.visugpx.com">
  <metadata>
    <name>Barrage du Trapan</name>
    <desc><![CDATA[Parcours de randonnée de 7,6 km à proximité de Bormes-les-Mimosas. 
]]></desc>
  </metadata>
  <trk>
    <name><![CDATA[barrage du Trapan-6932257]]></name>
    <trkseg>
      <trkpt lat="43.14912" lon="6.29329">
        <ele>66</ele>
        <time>2024-02-12T10:10:32Z</time>
      </trkpt>
      <trkpt lat="43.149" lon="6.29288">
        <ele>67</ele>
        <time>2024-02-12T10:11:15Z</time>
      </trkpt>
      <trkpt lat="43.1488" lon="6.29256">
        <ele>67</ele>
        <time>2024-02-12T10:11:56Z</time>
      </trkpt>
      <trkpt lat="43.14858" lon="6.29238">
        <ele>67</ele>
        <time>2024-02-12T10:12:30Z</time>
      </trkpt>
      <trkpt lat="43.14834" lon="6.29223">
        <ele>66</ele>
        <time>2024-02-12T10:13:05Z</time>
      </trkpt>
      <trkpt lat="43.14811" lon="6.29214">
        <ele>67</ele>
        <time>2024-02-12T10:13:37Z</time>
      </trkpt>
      <trkpt lat="43.14781" lon="6.29217">
        <ele>68</ele>
        <time>2024-02-12T10:14:17Z</time>
      </trkpt>
      <trkpt lat="43.14756" lon="6.29228">
        <ele>67</ele>
        <time>2024-02-12T10:14:53Z</time>
      </trkpt>
      <trkpt lat="43.14735" lon="6.29244">
        <ele>68</ele>
        <time>2024-02-12T10:15:25Z</time>
      </trkpt>
      <trkpt lat="43.14716" lon="6.2926">
        <ele>67</ele>
        <time>2024-02-12T10:15:54Z</time>
      </trkpt>
      <trkpt lat="43.14699" lon="6.29276">
        <ele>66</ele>
        <time>2024-02-12T10:16:22Z</time>
      </trkpt>
      <trkpt lat="43.14671" lon="6.2928">
        <ele>67</ele>
        <time>2024-02-12T10:16:59Z</time>
      </trkpt>
      <trkpt lat="43.14643" lon="6.29274">
        <ele>69</ele>
        <time>2024-02-12T10:17:37Z</time>
      </trkpt>
      <trkpt lat="43.14614" lon="6.29282">
        <ele>67</ele>
        <time>2024-02-12T10:18:17Z</time>
      </trkpt>
      <trkpt lat="43.14584" lon="6.29291">
        <ele>66</ele>
        <time>2024-02-12T10:18:58Z</time>
      </trkpt>
      <trkpt lat="43.14555" lon="6.29295">
        <ele>64</ele>
        <time>2024-02-12T10:19:37Z</time>
      </trkpt>
      <trkpt lat="43.14533" lon="6.29283">
        <ele>65</ele>
        <time>2024-02-12T10:20:08Z</time>
      </trkpt>
      <trkpt lat="43.14521" lon="6.29255">
        <ele>68</ele>
        <time>2024-02-12T10:20:40Z</time>
      </trkpt>
      <trkpt lat="43.14515" lon="6.29224">
        <ele>72</ele>
        <time>2024-02-12T10:21:11Z</time>
      </trkpt>
      <trkpt lat="43.145" lon="6.2921">
        <ele>72</ele>
        <time>2024-02-12T10:21:35Z</time>
      </trkpt>
      <trkpt lat="43.14482" lon="6.29238">
        <ele>70</ele>
        <time>2024-02-12T10:22:12Z</time>
      </trkpt>
      <trkpt lat="43.14464" lon="6.29263">
        <ele>67</ele>
        <time>2024-02-12T10:22:46Z</time>
      </trkpt>
      <trkpt lat="43.14444" lon="6.2927">
        <ele>67</ele>
        <time>2024-02-12T10:23:13Z</time>
      </trkpt>
      <trkpt lat="43.14421" lon="6.29262">
        <ele>70</ele>
        <time>2024-02-12T10:23:45Z</time>
      </trkpt>
      <trkpt lat="43.14404" lon="6.29242">
        <ele>72</ele>
        <time>2024-02-12T10:24:15Z</time>
      </trkpt>
      <trkpt lat="43.1438" lon="6.29204">
        <ele>76</ele>
        <time>2024-02-12T10:25:04Z</time>
      </trkpt>
      <trkpt lat="43.1437" lon="6.29181">
        <ele>79</ele>
        <time>2024-02-12T10:25:30Z</time>
      </trkpt>
      <trkpt lat="43.14353" lon="6.29152">
        <ele>80</ele>
        <time>2024-02-12T10:26:06Z</time>
      </trkpt>
      <trkpt lat="43.14357" lon="6.29102">
        <ele>87</ele>
        <time>2024-02-12T10:26:55Z</time>
      </trkpt>
      <trkpt lat="43.14357" lon="6.29045">
        <ele>94</ele>
        <time>2024-02-12T10:27:51Z</time>
      </trkpt>
      <trkpt lat="43.14367" lon="6.29">
        <ele>101</ele>
        <time>2024-02-12T10:28:36Z</time>
      </trkpt>
      <trkpt lat="43.1436" lon="6.28967">
        <ele>105</ele>
        <time>2024-02-12T10:29:10Z</time>
      </trkpt>
      <trkpt lat="43.14353" lon="6.28939">
        <ele>108</ele>
        <time>2024-02-12T10:29:39Z</time>
      </trkpt>
      <trkpt lat="43.14353" lon="6.28909">
        <ele>112</ele>
        <time>2024-02-12T10:30:08Z</time>
      </trkpt>
      <trkpt lat="43.14356" lon="6.28862">
        <ele>121</ele>
        <time>2024-02-12T10:30:54Z</time>
      </trkpt>
      <trkpt lat="43.1432" lon="6.28862">
        <ele>114</ele>
        <time>2024-02-12T10:31:42Z</time>
      </trkpt>
      <trkpt lat="43.14288" lon="6.28868">
        <ele>107</ele>
        <time>2024-02-12T10:32:25Z</time>
      </trkpt>
      <trkpt lat="43.14257" lon="6.2884">
        <ele>104</ele>
        <time>2024-02-12T10:33:15Z</time>
      </trkpt>
      <trkpt lat="43.14239" lon="6.28798">
        <ele>101</ele>
        <time>2024-02-12T10:34:02Z</time>
      </trkpt>
      <trkpt lat="43.14215" lon="6.28748">
        <ele>99</ele>
        <time>2024-02-12T10:35:00Z</time>
      </trkpt>
      <trkpt lat="43.14194" lon="6.28743">
        <ele>96</ele>
        <time>2024-02-12T10:35:29Z</time>
      </trkpt>
      <trkpt lat="43.14165" lon="6.28778">
        <ele>90</ele>
        <time>2024-02-12T10:36:20Z</time>
      </trkpt>
      <trkpt lat="43.14171" lon="6.28793">
        <ele>89</ele>
        <time>2024-02-12T10:36:37Z</time>
      </trkpt>
      <trkpt lat="43.14187" lon="6.2881">
        <ele>90</ele>
        <time>2024-02-12T10:37:04Z</time>
      </trkpt>
      <trkpt lat="43.14184" lon="6.28856">
        <ele>84</ele>
        <time>2024-02-12T10:37:49Z</time>
      </trkpt>
      <trkpt lat="43.14183" lon="6.28915">
        <ele>77</ele>
        <time>2024-02-12T10:38:46Z</time>
      </trkpt>
      <trkpt lat="43.14163" lon="6.2901">
        <ele>59</ele>
        <time>2024-02-12T10:40:23Z</time>
      </trkpt>
      <trkpt lat="43.14174" lon="6.29051">
        <ele>58</ele>
        <time>2024-02-12T10:41:05Z</time>
      </trkpt>
      <trkpt lat="43.1414" lon="6.28978">
        <ele>59</ele>
        <time>2024-02-12T10:42:29Z</time>
      </trkpt>
      <trkpt lat="43.14121" lon="6.28953">
        <ele>59</ele>
        <time>2024-02-12T10:43:05Z</time>
      </trkpt>
      <trkpt lat="43.14079" lon="6.28955">
        <ele>51</ele>
        <time>2024-02-12T10:44:01Z</time>
      </trkpt>
      <trkpt lat="43.1405" lon="6.28963">
        <ele>46</ele>
        <time>2024-02-12T10:44:40Z</time>
      </trkpt>
      <trkpt lat="43.14014" lon="6.28923">
        <ele>47</ele>
        <time>2024-02-12T10:45:42Z</time>
      </trkpt>
      <trkpt lat="43.13989" lon="6.28924">
        <ele>43</ele>
        <time>2024-02-12T10:46:15Z</time>
      </trkpt>
      <trkpt lat="43.13917" lon="6.28902">
        <ele>36</ele>
        <time>2024-02-12T10:47:54Z</time>
      </trkpt>
      <trkpt lat="43.13896" lon="6.28911">
        <ele>38</ele>
        <time>2024-02-12T10:48:23Z</time>
      </trkpt>
      <trkpt lat="43.13869" lon="6.28907">
        <ele>41</ele>
        <time>2024-02-12T10:48:59Z</time>
      </trkpt>
      <trkpt lat="43.13845" lon="6.28846">
        <ele>38</ele>
        <time>2024-02-12T10:50:07Z</time>
      </trkpt>
      <trkpt lat="43.13835" lon="6.2886">
        <ele>40</ele>
        <time>2024-02-12T10:50:26Z</time>
      </trkpt>
      <trkpt lat="43.13878" lon="6.28963">
        <ele>45</ele>
        <time>2024-02-12T10:52:22Z</time>
      </trkpt>
      <trkpt lat="43.13877" lon="6.28995">
        <ele>48</ele>
        <time>2024-02-12T10:52:53Z</time>
      </trkpt>
      <trkpt lat="43.13911" lon="6.29042">
        <ele>47</ele>
        <time>2024-02-12T10:53:57Z</time>
      </trkpt>
      <trkpt lat="43.13915" lon="6.29063">
        <ele>49</ele>
        <time>2024-02-12T10:54:18Z</time>
      </trkpt>
      <trkpt lat="43.13897" lon="6.29108">
        <ele>58</ele>
        <time>2024-02-12T10:55:08Z</time>
      </trkpt>
      <trkpt lat="43.13903" lon="6.29137">
        <ele>61</ele>
        <time>2024-02-12T10:55:38Z</time>
      </trkpt>
      <trkpt lat="43.13939" lon="6.2915">
        <ele>57</ele>
        <time>2024-02-12T10:56:27Z</time>
      </trkpt>
      <trkpt lat="43.13959" lon="6.29168">
        <ele>57</ele>
        <time>2024-02-12T10:56:59Z</time>
      </trkpt>
      <trkpt lat="43.13958" lon="6.2923">
        <ele>64</ele>
        <time>2024-02-12T10:58:00Z</time>
      </trkpt>
      <trkpt lat="43.13934" lon="6.29285">
        <ele>69</ele>
        <time>2024-02-12T10:59:02Z</time>
      </trkpt>
      <trkpt lat="43.13892" lon="6.29325">
        <ele>74</ele>
        <time>2024-02-12T11:00:10Z</time>
      </trkpt>
      <trkpt lat="43.13857" lon="6.29337">
        <ele>80</ele>
        <time>2024-02-12T11:00:58Z</time>
      </trkpt>
      <trkpt lat="43.13841" lon="6.29376">
        <ele>81</ele>
        <time>2024-02-12T11:01:42Z</time>
      </trkpt>
      <trkpt lat="43.13833" lon="6.29395">
        <ele>82</ele>
        <time>2024-02-12T11:02:03Z</time>
      </trkpt>
      <trkpt lat="43.13815" lon="6.29417">
        <ele>84</ele>
        <time>2024-02-12T11:02:36Z</time>
      </trkpt>
      <trkpt lat="43.1379" lon="6.29445">
        <ele>88</ele>
        <time>2024-02-12T11:03:19Z</time>
      </trkpt>
      <trkpt lat="43.1379" lon="6.29466">
        <ele>88</ele>
        <time>2024-02-12T11:03:39Z</time>
      </trkpt>
      <trkpt lat="43.13811" lon="6.29533">
        <ele>91</ele>
        <time>2024-02-12T11:04:50Z</time>
      </trkpt>
      <trkpt lat="43.13823" lon="6.29586">
        <ele>99</ele>
        <time>2024-02-12T11:05:44Z</time>
      </trkpt>
      <trkpt lat="43.13837" lon="6.29597">
        <ele>100</ele>
        <time>2024-02-12T11:06:06Z</time>
      </trkpt>
      <trkpt lat="43.13871" lon="6.29594">
        <ele>97</ele>
        <time>2024-02-12T11:06:51Z</time>
      </trkpt>
      <trkpt lat="43.13899" lon="6.29617">
        <ele>97</ele>
        <time>2024-02-12T11:07:35Z</time>
      </trkpt>
      <trkpt lat="43.13926" lon="6.29637">
        <ele>96</ele>
        <time>2024-02-12T11:08:16Z</time>
      </trkpt>
      <trkpt lat="43.13926" lon="6.29652">
        <ele>97</ele>
        <time>2024-02-12T11:08:30Z</time>
      </trkpt>
      <trkpt lat="43.13915" lon="6.29672">
        <ele>99</ele>
        <time>2024-02-12T11:08:55Z</time>
      </trkpt>
      <trkpt lat="43.13884" lon="6.29696">
        <ele>100</ele>
        <time>2024-02-12T11:09:42Z</time>
      </trkpt>
      <trkpt lat="43.1382" lon="6.29709">
        <ele>107</ele>
        <time>2024-02-12T11:11:09Z</time>
      </trkpt>
      <trkpt lat="43.13787" lon="6.29731">
        <ele>110</ele>
        <time>2024-02-12T11:11:57Z</time>
      </trkpt>
      <trkpt lat="43.13751" lon="6.29768">
        <ele>113</ele>
        <time>2024-02-12T11:12:58Z</time>
      </trkpt>
      <trkpt lat="43.13743" lon="6.29794">
        <ele>109</ele>
        <time>2024-02-12T11:13:25Z</time>
      </trkpt>
      <trkpt lat="43.13729" lon="6.29826">
        <ele>104</ele>
        <time>2024-02-12T11:14:01Z</time>
      </trkpt>
      <trkpt lat="43.13716" lon="6.2986">
        <ele>100</ele>
        <time>2024-02-12T11:14:39Z</time>
      </trkpt>
      <trkpt lat="43.13693" lon="6.29909">
        <ele>99</ele>
        <time>2024-02-12T11:15:35Z</time>
      </trkpt>
      <trkpt lat="43.13683" lon="6.29944">
        <ele>101</ele>
        <time>2024-02-12T11:16:12Z</time>
      </trkpt>
      <trkpt lat="43.13673" lon="6.29979">
        <ele>104</ele>
        <time>2024-02-12T11:16:49Z</time>
      </trkpt>
      <trkpt lat="43.13651" lon="6.30028">
        <ele>110</ele>
        <time>2024-02-12T11:17:45Z</time>
      </trkpt>
      <trkpt lat="43.1362" lon="6.30088">
        <ele>119</ele>
        <time>2024-02-12T11:18:56Z</time>
      </trkpt>
      <trkpt lat="43.13587" lon="6.30124">
        <ele>124</ele>
        <time>2024-02-12T11:19:53Z</time>
      </trkpt>
      <trkpt lat="43.13552" lon="6.30152">
        <ele>125</ele>
        <time>2024-02-12T11:20:47Z</time>
      </trkpt>
      <trkpt lat="43.13585" lon="6.30299">
        <ele>123</ele>
        <time>2024-02-12T11:23:16Z</time>
      </trkpt>
      <trkpt lat="43.13617" lon="6.30371">
        <ele>127</ele>
        <time>2024-02-12T11:24:39Z</time>
      </trkpt>
      <trkpt lat="43.13698" lon="6.30467">
        <ele>135</ele>
        <time>2024-02-12T11:27:01Z</time>
      </trkpt>
      <trkpt lat="43.13714" lon="6.30475">
        <ele>136</ele>
        <time>2024-02-12T11:27:24Z</time>
      </trkpt>
      <trkpt lat="43.13754" lon="6.30457">
        <ele>136</ele>
        <time>2024-02-12T11:28:20Z</time>
      </trkpt>
      <trkpt lat="43.13796" lon="6.30447">
        <ele>127</ele>
        <time>2024-02-12T11:29:17Z</time>
      </trkpt>
      <trkpt lat="43.13814" lon="6.30431">
        <ele>124</ele>
        <time>2024-02-12T11:29:46Z</time>
      </trkpt>
      <trkpt lat="43.13841" lon="6.30375">
        <ele>116</ele>
        <time>2024-02-12T11:30:51Z</time>
      </trkpt>
      <trkpt lat="43.13856" lon="6.30334">
        <ele>111</ele>
        <time>2024-02-12T11:31:36Z</time>
      </trkpt>
      <trkpt lat="43.13886" lon="6.3031">
        <ele>108</ele>
        <time>2024-02-12T11:32:22Z</time>
      </trkpt>
      <trkpt lat="43.13915" lon="6.30289">
        <ele>108</ele>
        <time>2024-02-12T11:33:06Z</time>
      </trkpt>
      <trkpt lat="43.13948" lon="6.30277">
        <ele>109</ele>
        <time>2024-02-12T11:33:52Z</time>
      </trkpt>
      <trkpt lat="43.13978" lon="6.30273">
        <ele>110</ele>
        <time>2024-02-12T11:34:32Z</time>
      </trkpt>
      <trkpt lat="43.14003" lon="6.30286">
        <ele>110</ele>
        <time>2024-02-12T11:35:07Z</time>
      </trkpt>
      <trkpt lat="43.14026" lon="6.30315">
        <ele>111</ele>
        <time>2024-02-12T11:35:49Z</time>
      </trkpt>
      <trkpt lat="43.14054" lon="6.30328">
        <ele>114</ele>
        <time>2024-02-12T11:36:29Z</time>
      </trkpt>
      <trkpt lat="43.14091" lon="6.30336">
        <ele>118</ele>
        <time>2024-02-12T11:37:19Z</time>
      </trkpt>
      <trkpt lat="43.14123" lon="6.30334">
        <ele>116</ele>
        <time>2024-02-12T11:38:01Z</time>
      </trkpt>
      <trkpt lat="43.14152" lon="6.30324">
        <ele>114</ele>
        <time>2024-02-12T11:38:41Z</time>
      </trkpt>
      <trkpt lat="43.14181" lon="6.30296">
        <ele>110</ele>
        <time>2024-02-12T11:39:29Z</time>
      </trkpt>
      <trkpt lat="43.14209" lon="6.30273">
        <ele>107</ele>
        <time>2024-02-12T11:40:12Z</time>
      </trkpt>
      <trkpt lat="43.14227" lon="6.3026">
        <ele>106</ele>
        <time>2024-02-12T11:40:39Z</time>
      </trkpt>
      <trkpt lat="43.14248" lon="6.30258">
        <ele>105</ele>
        <time>2024-02-12T11:41:07Z</time>
      </trkpt>
      <trkpt lat="43.14285" lon="6.30242">
        <ele>109</ele>
        <time>2024-02-12T11:41:59Z</time>
      </trkpt>
      <trkpt lat="43.14308" lon="6.30223">
        <ele>111</ele>
        <time>2024-02-12T11:42:35Z</time>
      </trkpt>
      <trkpt lat="43.14329" lon="6.30219">
        <ele>115</ele>
        <time>2024-02-12T11:43:03Z</time>
      </trkpt>
      <trkpt lat="43.14345" lon="6.30205">
        <ele>119</ele>
        <time>2024-02-12T11:43:29Z</time>
      </trkpt>
      <trkpt lat="43.14363" lon="6.30193">
        <ele>123</ele>
        <time>2024-02-12T11:43:55Z</time>
      </trkpt>
      <trkpt lat="43.14392" lon="6.30182">
        <ele>130</ele>
        <time>2024-02-12T11:44:36Z</time>
      </trkpt>
      <trkpt lat="43.14384" lon="6.30161">
        <ele>130</ele>
        <time>2024-02-12T11:44:59Z</time>
      </trkpt>
      <trkpt lat="43.14413" lon="6.30081">
        <ele>128</ele>
        <time>2024-02-12T11:46:26Z</time>
      </trkpt>
      <trkpt lat="43.14418" lon="6.3002">
        <ele>121</ele>
        <time>2024-02-12T11:47:25Z</time>
      </trkpt>
      <trkpt lat="43.14414" lon="6.30002">
        <ele>119</ele>
        <time>2024-02-12T11:47:44Z</time>
      </trkpt>
      <trkpt lat="43.14402" lon="6.30023">
        <ele>119</ele>
        <time>2024-02-12T11:48:10Z</time>
      </trkpt>
      <trkpt lat="43.14391" lon="6.30044">
        <ele>120</ele>
        <time>2024-02-12T11:48:35Z</time>
      </trkpt>
      <trkpt lat="43.14381" lon="6.30058">
        <ele>120</ele>
        <time>2024-02-12T11:48:54Z</time>
      </trkpt>
      <trkpt lat="43.14363" lon="6.30061">
        <ele>118</ele>
        <time>2024-02-12T11:49:18Z</time>
      </trkpt>
      <trkpt lat="43.14339" lon="6.3003">
        <ele>109</ele>
        <time>2024-02-12T11:50:02Z</time>
      </trkpt>
      <trkpt lat="43.14295" lon="6.30043">
        <ele>102</ele>
        <time>2024-02-12T11:51:02Z</time>
      </trkpt>
      <trkpt lat="43.14272" lon="6.30131">
        <ele>100</ele>
        <time>2024-02-12T11:52:33Z</time>
      </trkpt>
      <trkpt lat="43.14245" lon="6.30035">
        <ele>91</ele>
        <time>2024-02-12T11:54:13Z</time>
      </trkpt>
      <trkpt lat="43.14235" lon="6.30035">
        <ele>90</ele>
        <time>2024-02-12T11:54:27Z</time>
      </trkpt>
      <trkpt lat="43.1423" lon="6.30096">
        <ele>90</ele>
        <time>2024-02-12T11:55:26Z</time>
      </trkpt>
      <trkpt lat="43.14213" lon="6.30073">
        <ele>87</ele>
        <time>2024-02-12T11:55:58Z</time>
      </trkpt>
      <trkpt lat="43.14191" lon="6.30036">
        <ele>84</ele>
        <time>2024-02-12T11:56:45Z</time>
      </trkpt>
      <trkpt lat="43.14166" lon="6.3002">
        <ele>80</ele>
        <time>2024-02-12T11:57:22Z</time>
      </trkpt>
      <trkpt lat="43.14136" lon="6.30003">
        <ele>76</ele>
        <time>2024-02-12T11:58:05Z</time>
      </trkpt>
      <trkpt lat="43.14108" lon="6.29963">
        <ele>73</ele>
        <time>2024-02-12T11:58:59Z</time>
      </trkpt>
      <trkpt lat="43.14085" lon="6.29924">
        <ele>68</ele>
        <time>2024-02-12T11:59:48Z</time>
      </trkpt>
      <trkpt lat="43.14075" lon="6.29912">
        <ele>67</ele>
        <time>2024-02-12T12:00:05Z</time>
      </trkpt>
      <trkpt lat="43.1406" lon="6.2987">
        <ele>65</ele>
        <time>2024-02-12T12:00:51Z</time>
      </trkpt>
      <trkpt lat="43.14057" lon="6.29838">
        <ele>63</ele>
        <time>2024-02-12T12:01:22Z</time>
      </trkpt>
      <trkpt lat="43.14081" lon="6.29798">
        <ele>61</ele>
        <time>2024-02-12T12:02:13Z</time>
      </trkpt>
      <trkpt lat="43.14116" lon="6.29772">
        <ele>62</ele>
        <time>2024-02-12T12:03:06Z</time>
      </trkpt>
      <trkpt lat="43.14142" lon="6.29773">
        <ele>64</ele>
        <time>2024-02-12T12:03:41Z</time>
      </trkpt>
      <trkpt lat="43.14165" lon="6.29739">
        <ele>61</ele>
        <time>2024-02-12T12:04:26Z</time>
      </trkpt>
      <trkpt lat="43.14187" lon="6.29728">
        <ele>62</ele>
        <time>2024-02-12T12:04:57Z</time>
      </trkpt>
      <trkpt lat="43.14215" lon="6.2975">
        <ele>66</ele>
        <time>2024-02-12T12:05:40Z</time>
      </trkpt>
      <trkpt lat="43.14223" lon="6.2977">
        <ele>68</ele>
        <time>2024-02-12T12:06:02Z</time>
      </trkpt>
      <trkpt lat="43.14234" lon="6.29758">
        <ele>68</ele>
        <time>2024-02-12T12:06:21Z</time>
      </trkpt>
      <trkpt lat="43.14236" lon="6.2969">
        <ele>64</ele>
        <time>2024-02-12T12:07:27Z</time>
      </trkpt>
      <trkpt lat="43.14253" lon="6.29644">
        <ele>64</ele>
        <time>2024-02-12T12:08:18Z</time>
      </trkpt>
      <trkpt lat="43.14259" lon="6.29577">
        <ele>62</ele>
        <time>2024-02-12T12:09:23Z</time>
      </trkpt>
      <trkpt lat="43.14257" lon="6.29533">
        <ele>61</ele>
        <time>2024-02-12T12:10:06Z</time>
      </trkpt>
      <trkpt lat="43.14244" lon="6.29482">
        <ele>59</ele>
        <time>2024-02-12T12:10:59Z</time>
      </trkpt>
      <trkpt lat="43.14257" lon="6.29451">
        <ele>57</ele>
        <time>2024-02-12T12:11:34Z</time>
      </trkpt>
      <trkpt lat="43.14284" lon="6.2945">
        <ele>57</ele>
        <time>2024-02-12T12:12:10Z</time>
      </trkpt>
      <trkpt lat="43.14303" lon="6.29471">
        <ele>58</ele>
        <time>2024-02-12T12:12:42Z</time>
      </trkpt>
      <trkpt lat="43.14319" lon="6.29501">
        <ele>59</ele>
        <time>2024-02-12T12:13:18Z</time>
      </trkpt>
      <trkpt lat="43.14338" lon="6.29533">
        <ele>62</ele>
        <time>2024-02-12T12:13:59Z</time>
      </trkpt>
      <trkpt lat="43.14342" lon="6.29559">
        <ele>64</ele>
        <time>2024-02-12T12:14:24Z</time>
      </trkpt>
      <trkpt lat="43.14369" lon="6.29602">
        <ele>66</ele>
        <time>2024-02-12T12:15:20Z</time>
      </trkpt>
      <trkpt lat="43.14402" lon="6.29594">
        <ele>62</ele>
        <time>2024-02-12T12:16:04Z</time>
      </trkpt>
      <trkpt lat="43.14452" lon="6.29606">
        <ele>64</ele>
        <time>2024-02-12T12:17:12Z</time>
      </trkpt>
      <trkpt lat="43.14485" lon="6.29618">
        <ele>67</ele>
        <time>2024-02-12T12:17:58Z</time>
      </trkpt>
      <trkpt lat="43.14504" lon="6.29637">
        <ele>70</ele>
        <time>2024-02-12T12:18:29Z</time>
      </trkpt>
      <trkpt lat="43.14508" lon="6.29622">
        <ele>68</ele>
        <time>2024-02-12T12:18:45Z</time>
      </trkpt>
      <trkpt lat="43.14486" lon="6.29564">
        <ele>61</ele>
        <time>2024-02-12T12:19:48Z</time>
      </trkpt>
      <trkpt lat="43.14485" lon="6.29542">
        <ele>59</ele>
        <time>2024-02-12T12:20:10Z</time>
      </trkpt>
      <trkpt lat="43.14495" lon="6.29529">
        <ele>59</ele>
        <time>2024-02-12T12:20:28Z</time>
      </trkpt>
      <trkpt lat="43.14543" lon="6.29532">
        <ele>59</ele>
        <time>2024-02-12T12:21:32Z</time>
      </trkpt>
      <trkpt lat="43.14567" lon="6.29556">
        <ele>62</ele>
        <time>2024-02-12T12:22:12Z</time>
      </trkpt>
      <trkpt lat="43.14587" lon="6.29553">
        <ele>61</ele>
        <time>2024-02-12T12:22:39Z</time>
      </trkpt>
      <trkpt lat="43.14619" lon="6.29596">
        <ele>62</ele>
        <time>2024-02-12T12:23:39Z</time>
      </trkpt>
      <trkpt lat="43.14645" lon="6.29664">
        <ele>68</ele>
        <time>2024-02-12T12:24:53Z</time>
      </trkpt>
      <trkpt lat="43.14682" lon="6.29698">
        <ele>65</ele>
        <time>2024-02-12T12:25:53Z</time>
      </trkpt>
      <trkpt lat="43.14699" lon="6.29723">
        <ele>64</ele>
        <time>2024-02-12T12:26:26Z</time>
      </trkpt>
      <trkpt lat="43.14706" lon="6.2977">
        <ele>65</ele>
        <time>2024-02-12T12:27:13Z</time>
      </trkpt>
      <trkpt lat="43.14706" lon="6.29794">
        <ele>65</ele>
        <time>2024-02-12T12:27:36Z</time>
      </trkpt>
      <trkpt lat="43.14749" lon="6.29829">
        <ele>59</ele>
        <time>2024-02-12T12:28:43Z</time>
      </trkpt>
      <trkpt lat="43.14775" lon="6.29819">
        <ele>59</ele>
        <time>2024-02-12T12:29:19Z</time>
      </trkpt>
      <trkpt lat="43.1484" lon="6.29844">
        <ele>62</ele>
        <time>2024-02-12T12:30:49Z</time>
      </trkpt>
      <trkpt lat="43.14857" lon="6.29839">
        <ele>63</ele>
        <time>2024-02-12T12:31:12Z</time>
      </trkpt>
      <trkpt lat="43.1489" lon="6.29816">
        <ele>64</ele>
        <time>2024-02-12T12:32:02Z</time>
      </trkpt>
      <trkpt lat="43.14901" lon="6.29824">
        <ele>65</ele>
        <time>2024-02-12T12:32:18Z</time>
      </trkpt>
      <trkpt lat="43.14928" lon="6.29867">
        <ele>68</ele>
        <time>2024-02-12T12:33:13Z</time>
      </trkpt>
      <trkpt lat="43.14976" lon="6.29703">
        <ele>65</ele>
        <time>2024-02-12T12:36:06Z</time>
      </trkpt>
      <trkpt lat="43.1498" lon="6.29672">
        <ele>64</ele>
        <time>2024-02-12T12:36:36Z</time>
      </trkpt>
      <trkpt lat="43.14984" lon="6.29641">
        <ele>63</ele>
        <time>2024-02-12T12:37:07Z</time>
      </trkpt>
      <trkpt lat="43.14982" lon="6.29593">
        <ele>62</ele>
        <time>2024-02-12T12:37:54Z</time>
      </trkpt>
      <trkpt lat="43.14979" lon="6.29538">
        <ele>63</ele>
        <time>2024-02-12T12:38:47Z</time>
      </trkpt>
      <trkpt lat="43.14969" lon="6.29466">
        <ele>67</ele>
        <time>2024-02-12T12:39:59Z</time>
      </trkpt>
      <trkpt lat="43.14961" lon="6.29387">
        <ele>69</ele>
        <time>2024-02-12T12:41:16Z</time>
      </trkpt>
      <trkpt lat="43.14942" lon="6.29385">
        <ele>68</ele>
        <time>2024-02-12T12:41:42Z</time>
      </trkpt>
      <trkpt lat="43.14926" lon="6.2937">
        <ele>66</ele>
        <time>2024-02-12T12:42:08Z</time>
      </trkpt>
      <trkpt lat="43.1492" lon="6.29353">
        <ele>66</ele>
        <time>2024-02-12T12:42:26Z</time>
      </trkpt>
    </trkseg>
  </trk>
</gpx>